METAR Data
IDs: Format: Raw Decoded Include TAF

Data at: 2121 UTC 18 Sep 2018

KCFV 182052Z AUTO 18010KT 10SM BKN065 BKN085 34/21 A2987 RMK AO2 SLP105 T03440206 56018
KCFV 181952Z AUTO 16005G17KT 10SM SCT060 33/20 A2988 RMK AO2 SLP108 T03330200
KCFV 181852Z AUTO 18010G16KT 10SM SCT055 34/21 A2989 RMK AO2 SLP114 T03390211
KCFV 181752Z AUTO 22009KT 10SM CLR 33/21 A2992 RMK AO2 SLP123 T03280206 10333 20206 58016
KCFV 181652Z AUTO 20008KT 10SM CLR 32/21 A2994 RMK AO2 SLP131 T03220211
KCFV 181552Z AUTO 23005KT 10SM CLR 30/22 A2996 RMK AO2 SLP138 T03000217
KCFV 181452Z AUTO 20005KT 10SM CLR 28/22 A2997 RMK AO2 SLP140 T02780222 51006
KCFV 181352Z AUTO 18007KT 10SM CLR 25/21 A2997 RMK AO2 SLP140 T02500211
KCFV 181252Z AUTO 00000KT 10SM CLR 22/20 A2996 RMK AO2 SLP139 T02220200
KCFV 181152Z AUTO 15004KT 10SM CLR 21/19 A2995 RMK AO2 SLP134 T02110194 10233 20211 53003
KCFV 181052Z AUTO 18005KT 10SM CLR 21/19 A2994 RMK AO2 SLP132 T02110194
KCFV 180952Z AUTO 18005KT 10SM CLR 22/19 A2994 RMK AO2 SLP129 T02170194
KCFV 180852Z AUTO 18004KT 10SM CLR 22/20 A2994 RMK AO2 SLP130 T02220200 56003
KCFV 180752Z AUTO 17003KT 10SM CLR 23/20 A2994 RMK AO2 SLP130 T02280200
KCFV 180652Z AUTO 00000KT 10SM CLR 23/20 A2994 RMK AO2 SLP131 T02280200
KCFV 180552Z AUTO 00000KT 10SM CLR 23/21 A2995 RMK AO2 SLP133 T02330211 10306 20228 403330189 51007
KCFV 180452Z AUTO 00000KT 10SM CLR 23/21 A2995 RMK AO2 SLP132 T02330206
KCFV 180352Z AUTO 00000KT 10SM CLR 23/21 A2994 RMK AO2 SLP131 T02330206 TSNO
KCFV 180252Z AUTO 00000KT 10SM CLR 25/21 A2993 RMK AO2 SLP127 T02500211 53013 TSNO
KCFV 180152Z AUTO 12004KT 10SM CLR 26/21 A2991 RMK AO2 SLP121 T02610211
KCFV 180052Z AUTO 14004KT 10SM CLR 28/21 A2990 RMK AO2 SLP117 T02830211
KCFV 172352Z AUTO 15004KT 10SM CLR 31/21 A2989 RMK AO2 SLP114 T03110206 10333 20311 56005
KCFV 172252Z AUTO 19007KT 10SM CLR 32/20 A2989 RMK AO2 SLP114 T03220200
KCFV 172152Z AUTO 20007KT 10SM FEW070 32/20 A2990 RMK AO2 SLP116 T03220200
KCFV 172052Z AUTO 19006KT 10SM FEW060 32/20 A2990 RMK AO2 SLP119 T03220200 56019
KCFV 171952Z AUTO 17004KT 10SM FEW075 SCT090 32/21 A2992 RMK AO2 SLP124 T03170206
KCFV 171852Z AUTO 20005KT 10SM FEW050 SCT070 BKN100 32/21 A2994 RMK AO2 SLP132 T03170206
KCFV 171752Z AUTO 10SM SCT100 32/20 A2996 RMK AO2 SLP138 T03220200 10322 20189 58007
KCFV 171652Z AUTO VRB03KT 10SM FEW085 31/18 A2998 RMK AO2 SLP143 T03110183
KCFV 171552Z AUTO 16004KT 10SM CLR 28/21 A2999 RMK AO2 SLP147 T02830206
KCFV 171452Z AUTO 00000KT 10SM CLR 26/21 A2998 RMK AO2 SLP147 T02610206 51012
KCFV 171352Z AUTO 00000KT 10SM CLR 24/20 A2997 RMK AO2 SLP143 T02390200
KCFV 171252Z AUTO 00000KT 10SM CLR 20/19 A2997 RMK AO2 SLP141 T02000189
KCFV 171152Z AUTO 02003KT 10SM CLR 19/18 A2995 RMK AO2 SLP135 T01890178 10211 20189 53005 $
KCFV 171052Z AUTO 00000KT 10SM CLR 19/18 A2994 RMK AO2 SLP129 T01940183 $
KCFV 170952Z AUTO 00000KT 10SM CLR 19/18 A2993 RMK AO2 SLP128 T01940183 $